Portada
METAR-TAF:

METAR-TAF

Aeroports :

Làrnaca, Xipre

latitud: 34-53N, longitud: 033-38E, altitud: 2 m

Observació

L'informe es va fer fa 17 minuts, a les 13:30 UTC
Vent 17 kt del Sud-Oest
Temperatura 28°C
Humitat 62%
Pressió 1008 hPa
Visibilitat 10 km o més
Escasses núvols a una alçada de 3000 ft

METAR: LCLK 241330Z 22017KT 9999 FEW030 28/20 Q1008 NOSIG

Hora: 16:47 (13:47 UTC)

Pronòstic

L'informe es va fer fa 2 hores i 17 minuts, a les 11:30 UTC
Pronòstic vàlid del 24 a les 12 UTC al 25 a les 12 UTC
Vent 17 kt del Sud/Sud-Oest
Visibilitat 10 km o més
Escasses núvols a una alçada de 3000 ft
Evolucionant progressivament
l' 24 a les 16 UTC al 24 a les 19 UTC
Vent 7 kt del Oest/Nord-Oest
Evolucionant progressivament
l' 25 a les 08 UTC al 25 a les 11 UTC
Vent 17 kt del Sud/Sud-Oest

TAF: LCLK 241130Z 2412/2512 21017KT 9999 FEW030 BECMG 2416/2419 29007KT BECMG 2508/2511 21017KT

Observacions i pronòstics meteorològics de més de 4000 aeroports (METAR i TAF).

Les estacions disponibles són els punts grocs i vermells al mapa.

Posi el ratolí al punt desitjat per veure el nom de l'estació.

Feu clic per veure les observacions i els pronòstics meteorològics.

Per canviar el mapa: feu clic els botons verds amb una creu de color negre per apropar; al botó verd amb un guió per allunyar la imatge; o en les fletxes verdes per a mapes adjacents.


METAR-TAF: